Main page
METAR-TAF:

METAR-TAF

Airports :

Les Eplatures Airport

La Chaux-de-Fonds, Switzerland

latitude: 47-05-03N, longitude: 006-47-37E, elevation: 1027 m

Current weather observation

The report was made 35 minutes ago, at 22:50 UTC
Wind 1 kt from variable directions
Temperature 10°C
Humidity 62%
Pressure 1001 hPa
Visibility 10 km or more

METAR: LSGC 222250Z AUTO VRB01KT 9999 NCD 10/03 Q1001

Time: 01:25 (23:25 UTC)

Forecast

The report was made 9 hours and 0 minutes ago, at 14:25 UTC
Forecast valid from 22 at 15 UTC to 22 at 24 UTC
Wind 3 kt from variable directions
Visibility 10 km or more
no clouds below 1500 m and no cumulonimbus

TAF: LSGC 221425Z 2215/2224 VRB03KT CAVOK

Weather observations and forecasts of more than 4000 airports (METAR and TAF reports).

The available stations are represented by yellow and red dots on the map.

Hover mouse over dot to see the name of the station.

Then click to see weather observations and forecasts.

To change the map : click on the green buttons with a black cross to zoom in, on the green button with a dash to zoom out, or on the green arrows for adjacent maps.


METAR-TAF: